Time;durP1;ratioP1;P1;durP2;ratioP2;P2;SDS_P1;SDS_P2;PMS_P1;PMS_P2;Temp;Humidity;BMP_temperature;BMP_pressure;BME280_temperature;BME280_humidity;BME280_pressure;Samples;Min_cycle;Max_cycle;Signal;HPM_P1;HPM_P2
2022/01/16 00:01:33;;;;;;;7.22;4.43;;;;;;;-0.78;82.20;61922.09;4971030;28;20252;-81
2022/01/16 00:04:09;;;;;;;4.53;4.10;;;;;;;-0.82;83.83;61923.00;4972989;28;20233;-80
2022/01/16 00:06:36;;;;;;;7.68;4.43;;;;;;;-0.77;85.08;61920.09;4971222;28;20220;-81
2022/01/16 00:09:03;;;;;;;5.22;3.97;;;;;;;-0.79;86.13;61915.53;4971455;29;20553;-79
2022/01/16 00:11:31;;;;;;;6.82;3.92;;;;;;;-0.82;87.44;61913.00;4971238;29;20283;-81
2022/01/16 00:13:58;;;;;;;7.03;4.50;;;;;;;-0.81;88.53;61918.50;4970281;29;20208;-80
2022/01/16 00:16:26;;;;;;;5.68;4.35;;;;;;;-0.84;89.59;61913.44;4970550;29;20216;-79
2022/01/16 00:18:53;;;;;;;6.55;5.10;;;;;;;-0.74;90.93;61923.19;4970899;28;20271;-79
2022/01/16 00:21:22;;;;;;;5.55;4.95;;;;;;;-0.76;92.80;61923.63;4970127;28;20228;-79
2022/01/16 00:23:50;;;;;;;6.28;4.35;;;;;;;-0.77;94.92;61920.63;4970070;29;20197;-79
2022/01/16 00:26:17;;;;;;;6.65;5.07;;;;;;;-0.79;96.79;61920.53;4968010;29;20224;-79
2022/01/16 00:28:45;;;;;;;7.00;4.47;;;;;;;-0.77;98.34;61923.13;4970772;29;20204;-80
2022/01/16 00:31:12;;;;;;;10.07;5.40;;;;;;;-0.72;99.10;61928.22;4969571;28;20229;-79
2022/01/16 00:33:43;;;;;;;6.57;4.72;;;;;;;-0.77;99.79;61917.59;4969070;29;20445;-80
2022/01/16 00:36:11;;;;;;;7.40;4.65;;;;;;;-0.73;99.89;61922.22;4968425;29;20252;-79
2022/01/16 00:38:40;;;;;;;6.88;4.68;;;;;;;-0.73;99.42;61929.19;4969237;28;20264;-79
2022/01/16 00:41:07;;;;;;;5.45;4.82;;;;;;;-0.83;99.63;61911.97;4969080;28;20229;-78
2022/01/16 00:43:34;;;;;;;6.40;5.20;;;;;;;-0.77;99.53;61920.09;4969569;29;20404;-80
2022/01/16 00:46:01;;;;;;;8.70;5.53;;;;;;;-0.75;99.33;61924.66;4970464;28;20413;-80
2022/01/16 00:48:28;;;;;;;7.90;4.53;;;;;;;-0.76;99.20;61924.13;4970634;28;20434;-80
2022/01/16 00:50:56;;;;;;;6.03;4.35;;;;;;;-0.80;99.03;61927.53;4965601;28;20224;-80
2022/01/16 00:53:23;;;;;;;4.60;3.95;;;;;;;-0.73;99.61;61926.69;4969283;29;20220;-80
2022/01/16 00:55:50;;;;;;;5.60;4.07;;;;;;;-0.81;100.00;61916.00;4969562;28;20221;-78
2022/01/16 00:58:17;;;;;;;5.07;3.58;;;;;;;-0.75;100.00;61920.16;4968750;28;20255;-79
2022/01/16 01:00:44;;;;;;;6.10;4.75;;;;;;;-0.82;100.00;61917.47;4969320;29;20301;-78
2022/01/16 01:03:11;;;;;;;6.05;4.10;;;;;;;-0.72;100.00;61922.72;4969199;29;20209;-79
2022/01/16 01:05:38;;;;;;;4.53;3.95;;;;;;;-0.69;100.00;61930.78;4968160;29;20224;-78
2022/01/16 01:08:08;;;;;;;5.97;4.13;;;;;;;-0.72;100.00;61927.72;4968892;28;20205;-78
2022/01/16 01:10:38;;;;;;;6.10;4.35;;;;;;;-0.71;100.00;61926.25;4968247;29;20220;-78
2022/01/16 01:13:10;;;;;;;6.50;4.78;;;;;;;-0.76;100.00;61921.13;4972914;29;20197;-78
2022/01/16 01:15:44;;;;;;;5.30;4.43;;;;;;;-0.74;100.00;61928.69;4974460;28;20220;-78
2022/01/16 01:18:11;;;;;;;6.25;4.55;;;;;;;-0.76;100.00;61926.13;4969723;28;20584;-78
2022/01/16 01:20:40;;;;;;;6.25;3.38;;;;;;;-0.72;100.00;61925.22;4969112;28;20236;-79
2022/01/16 01:23:10;;;;;;;5.60;4.20;;;;;;;-0.75;100.00;61930.16;4968668;28;20228;-79
2022/01/16 01:25:38;;;;;;;5.03;4.50;;;;;;;-0.77;100.00;61922.59;4967901;29;20227;-79
2022/01/16 01:28:05;;;;;;;7.22;4.50;;;;;;;-0.76;100.00;61928.63;4968693;28;20217;-79
2022/01/16 01:30:32;;;;;;;9.82;4.93;;;;;;;-0.73;100.00;61924.19;4968343;28;20248;-79
2022/01/16 01:32:59;;;;;;;6.78;4.63;;;;;;;-0.77;100.00;61925.09;4969178;28;20208;-80
2022/01/16 01:35:26;;;;;;;6.55;3.78;;;;;;;-0.76;100.00;61923.63;4962536;29;20482;-79
2022/01/16 01:37:53;;;;;;;6.85;4.05;;;;;;;-0.75;100.00;61922.66;4957185;29;20232;-80
2022/01/16 01:40:24;;;;;;;5.35;4.13;;;;;;;-0.71;100.00;61931.25;4958377;28;20225;-80
2022/01/16 01:43:04;;;;;;;5.00;4.15;;;;;;;-0.75;100.00;61924.66;4971508;28;20245;-79
2022/01/16 01:51:10;;;;;;;4.65;4.20;;;;;;;-0.88;100.00;61911.34;4970305;29;20305;-79
2022/01/16 01:53:38;;;;;;;3.92;3.50;;;;;;;-0.87;100.00;61915.38;4975953;28;20214;-79
2022/01/16 01:56:09;;;;;;;4.38;3.95;;;;;;;-0.83;100.00;61914.47;4968569;29;20228;-79
2022/01/16 01:58:36;;;;;;;5.60;4.95;;;;;;;-0.88;100.00;61909.34;4968539;29;20456;-79
2022/01/16 02:01:04;;;;;;;5.97;4.03;;;;;;;-0.78;100.00;61919.06;4965615;28;20236;-79
2022/01/16 02:03:42;;;;;;;6.07;4.05;;;;;;;-0.74;100.00;61920.69;4968567;29;20218;-80
2022/01/16 02:06:09;;;;;;;6.32;3.92;;;;;;;-0.79;100.00;61916.06;4965260;29;20400;-79
2022/01/16 02:08:36;;;;;;;5.88;4.88;;;;;;;-0.77;100.00;61922.59;4968105;28;20411;-79
2022/01/16 02:11:04;;;;;;;5.85;5.00;;;;;;;-0.82;100.00;61915.50;4969163;28;20280;-79
2022/01/16 02:13:43;;;;;;;10.35;4.80;;;;;;;-0.77;100.00;61925.59;4971771;29;20231;-78
2022/01/16 02:30:43;;;;;;;11.82;6.85;;;;;;;-0.96;100.00;61901.16;4949083;29;20542;-79
2022/01/16 02:34:28;;;;;;;7.28;6.53;;;;;;;-1.04;100.00;61892.97;4955406;29;20200;-80
2022/01/16 02:36:14;;;;;;;9.27;5.95;;;;;;;-1.03;100.00;61899.00;4952697;29;20221;-79
2022/01/16 02:38:41;;;;;;;8.07;5.30;;;;;;;-1.11;100.00;61885.81;4951613;29;20221;-80
2022/01/16 02:41:09;;;;;;;8.38;6.20;;;;;;;-1.15;100.00;61881.72;4952318;29;20225;-80
2022/01/16 02:43:36;;;;;;;11.60;5.70;;;;;;;-1.17;100.00;61879.16;4967479;29;20207;-80
2022/01/16 02:48:50;;;;;;;13.45;7.82;;;;;;;-1.38;100.00;61860.69;4967786;29;20204;-80
2022/01/16 02:51:18;;;;;;;7.82;6.40;;;;;;;-1.41;100.00;61857.59;4967277;28;20263;-80
2022/01/16 02:53:45;;;;;;;10.43;6.28;;;;;;;-1.54;100.00;61839.81;4967471;29;20205;-78
2022/01/16 02:56:14;;;;;;;9.35;6.90;;;;;;;-1.53;100.00;61847.81;4967419;29;20228;-78
2022/01/16 02:58:41;;;;;;;9.55;5.90;;;;;;;-1.51;100.00;61840.41;4949397;29;20633;-81
2022/01/16 03:01:08;;;;;;;16.17;8.73;;;;;;;-1.56;100.00;61842.75;4962965;29;20239;-80
2022/01/16 03:03:35;;;;;;;6.13;5.18;;;;;;;-1.67;100.00;61826.00;4969003;29;20430;-79
2022/01/16 03:06:02;;;;;;;10.63;6.60;;;;;;;-1.67;100.00;61831.00;4970387;28;20272;-78
2022/01/16 03:08:29;;;;;;;9.95;6.65;;;;;;;-1.69;100.00;61828.97;4970167;29;20220;-80
2022/01/16 03:11:15;;;;;;;11.65;7.38;;;;;;;-1.82;100.00;61813.66;4957745;29;21144;-80
2022/01/16 03:13:47;;;;;;;10.40;8.07;;;;;;;-1.90;100.00;61808.00;4971060;28;20482;-79
2022/01/16 03:16:15;;;;;;;13.15;8.38;;;;;;;-1.95;100.00;61800.38;4970711;28;20220;-79
2022/01/16 03:24:25;;;;;;;13.13;8.27;;;;;;;-2.10;100.00;61782.53;4901871;29;20184;-79
2022/01/16 03:26:53;;;;;;;15.90;8.95;;;;;;;-2.12;100.00;61787.47;4935809;29;20299;-80
2022/01/16 03:29:22;;;;;;;14.13;8.60;;;;;;;-2.21;100.00;61781.28;4949491;29;20200;-79
2022/01/16 03:31:48;;;;;;;10.75;7.55;;;;;;;-2.13;100.00;61779.47;4963965;29;20235;-79
2022/01/16 03:34:15;;;;;;;14.57;9.80;;;;;;;-2.21;100.00;61771.31;4969411;28;20264;-79
2022/01/16 03:36:42;;;;;;;12.93;9.23;;;;;;;-2.18;100.00;61784.34;4968587;28;20265;-79
2022/01/16 03:39:09;;;;;;;15.00;8.98;;;;;;;-2.19;100.00;61778.31;4969332;28;20276;-79
2022/01/16 03:41:37;;;;;;;14.13;8.32;;;;;;;-2.24;100.00;61772.72;4970909;28;20276;-78
2022/01/16 03:44:04;;;;;;;13.45;7.78;;;;;;;-2.28;100.00;61768.63;4973412;29;20260;-78
2022/01/16 03:46:35;;;;;;;10.57;7.32;;;;;;;-2.33;100.00;61763.50;4971588;28;20225;-79
2022/01/16 03:49:05;;;;;;;14.07;7.97;;;;;;;-2.39;100.00;61757.88;4956920;29;20329;-78
2022/01/16 03:51:32;;;;;;;11.48;7.20;;;;;;;-2.32;100.00;61762.53;4953511;29;20236;-79
2022/01/16 03:53:59;;;;;;;13.32;7.75;;;;;;;-2.29;100.00;61762.59;4955225;29;20249;-78
2022/01/16 03:56:26;;;;;;;11.05;7.20;;;;;;;-2.34;100.00;61765.47;4971342;29;20275;-79
2022/01/16 03:58:53;;;;;;;11.50;8.00;;;;;;;-2.38;100.00;61761.38;4970762;29;20243;-78
2022/01/16 04:01:20;;;;;;;10.55;7.22;;;;;;;-2.37;100.00;61762.94;4970909;28;20255;-78
2022/01/16 04:03:48;;;;;;;13.60;7.50;;;;;;;-2.36;100.00;61758.44;4959908;29;20209;-78
2022/01/16 04:06:15;;;;;;;11.13;7.20;;;;;;;-2.43;100.00;61756.78;4970375;28;20221;-79
2022/01/16 04:08:42;;;;;;;11.48;7.25;;;;;;;-2.37;100.00;61760.44;4965430;28;20205;-78
2022/01/16 04:11:09;;;;;;;11.80;7.45;;;;;;;-2.26;100.00;61778.13;4956262;29;20291;-78
2022/01/16 04:13:40;;;;;;;10.15;6.57;;;;;;;-2.31;100.00;61760.56;4969617;29;20205;-77
2022/01/16 04:16:07;;;;;;;11.85;7.10;;;;;;;-2.36;100.00;61758.97;4967437;28;20447;-78
2022/01/16 04:18:34;;;;;;;9.85;6.88;;;;;;;-2.35;100.00;61759.97;4963896;28;20305;-79
2022/01/16 04:21:02;;;;;;;10.48;6.65;;;;;;;-2.39;100.00;61755.91;4961791;28;20217;-78
2022/01/16 04:23:29;;;;;;;9.73;6.47;;;;;;;-2.32;100.00;61762.53;4969376;29;20232;-78
2022/01/16 04:25:56;;;;;;;10.30;6.18;;;;;;;-2.22;100.00;61775.25;4974755;28;20220;-79
2022/01/16 04:28:25;;;;;;;12.73;7.07;;;;;;;-2.15;100.00;61782.41;4972946;29;20197;-79
2022/01/16 04:30:53;;;;;;;10.07;6.65;;;;;;;-2.13;100.00;61781.44;4974830;28;20225;-78
2022/01/16 04:33:20;;;;;;;10.95;6.35;;;;;;;-2.13;100.00;61786.44;4978284;29;20197;-77
2022/01/16 04:35:47;;;;;;;10.52;7.43;;;;;;;-2.11;100.00;61791.50;4967466;29;20216;-78
2022/01/16 04:38:15;;;;;;;10.32;6.38;;;;;;;-2.00;100.00;61789.78;4966076;29;20271;-78
2022/01/16 04:40:45;;;;;;;9.60;6.55;;;;;;;-1.93;100.00;61809.41;4966693;28;20248;-78
2022/01/16 04:45:57;;;;;;;12.60;7.72;;;;;;;-1.93;100.00;61807.41;4970490;29;20243;-79
2022/01/16 04:48:24;;;;;;;13.95;7.40;;;;;;;-1.92;100.00;61807.91;4969890;28;20207;-78
2022/01/16 04:50:51;;;;;;;10.30;7.82;;;;;;;-1.86;100.00;61811.56;4970760;28;20228;-79
2022/01/16 04:53:19;;;;;;;11.65;7.43;;;;;;;-1.79;100.00;61819.22;4969090;28;20207;-78
2022/01/16 04:55:48;;;;;;;14.23;7.65;;;;;;;-1.89;100.00;61811.50;4969747;29;20221;-78
2022/01/16 04:58:15;;;;;;;8.60;6.88;;;;;;;-1.81;100.00;61817.19;4968516;28;20232;-79
2022/01/16 05:00:42;;;;;;;14.23;7.70;;;;;;;-1.76;100.00;61819.78;4968486;28;20225;-78
2022/01/16 05:03:09;;;;;;;10.45;6.85;;;;;;;-1.81;100.00;61816.69;4970291;29;20424;-79
2022/01/16 05:05:36;;;;;;;16.33;7.40;;;;;;;-1.81;100.00;61814.19;4970266;28;20344;-78
2022/01/16 05:08:02;;;;;;;11.13;7.13;;;;;;;-1.76;100.00;61816.81;4970485;29;20279;-78
2022/01/16 05:10:31;;;;;;;10.27;7.05;;;;;;;-1.74;100.00;61821.84;4970121;29;20220;-78
2022/01/16 05:13:25;;;;;;;10.63;6.95;;;;;;;-1.84;100.00;61813.59;4969902;29;20204;-79
2022/01/16 05:18:30;;;;;;;9.13;6.60;;;;;;;-1.82;100.00;61810.66;4968661;29;20254;-79
2022/01/16 05:20:57;;;;;;;11.50;7.00;;;;;;;-1.89;100.00;61809.00;4971459;28;20216;-79
2022/01/16 05:23:23;;;;;;;12.77;6.93;;;;;;;-1.86;100.00;61814.56;4971799;28;20446;-79
2022/01/16 05:25:52;;;;;;;10.13;5.97;;;;;;;-1.90;100.00;61803.00;4970413;29;20238;-78
2022/01/16 05:28:18;;;;;;;8.77;6.38;;;;;;;-1.98;100.00;61799.78;4967334;29;20263;-78
2022/01/16 05:30:45;;;;;;;7.35;6.28;;;;;;;-2.01;100.00;61793.72;4970072;28;20288;-79
2022/01/16 05:33:12;;;;;;;9.38;6.03;;;;;;;-2.01;100.00;61791.22;4967782;28;20235;-78
2022/01/16 05:35:40;;;;;;;6.95;5.85;;;;;;;-1.98;100.00;61796.78;4968467;29;20241;-78
2022/01/16 05:38:07;;;;;;;9.50;5.88;;;;;;;-1.94;100.00;61803.88;4965051;28;20204;-79
2022/01/16 05:40:34;;;;;;;10.77;6.72;;;;;;;-1.88;100.00;61807.53;4970000;28;20224;-81
2022/01/16 05:43:02;;;;;;;10.02;6.70;;;;;;;-1.75;100.00;61820.31;4969191;28;20204;-79
2022/01/16 05:45:29;;;;;;;10.68;6.50;;;;;;;-1.72;100.00;61826.38;4965238;28;20284;-78
2022/01/16 05:47:56;;;;;;;11.48;7.82;;;;;;;-1.77;100.00;61821.28;4963081;29;20264;-79
2022/01/16 05:50:24;;;;;;;10.05;7.47;;;;;;;-1.66;100.00;61829.53;4971798;28;20272;-78
2022/01/16 05:52:51;;;;;;;12.45;7.38;;;;;;;-1.69;100.00;61828.97;4970477;29;20204;-79
2022/01/16 05:55:18;;;;;;;11.02;7.55;;;;;;;-1.66;100.00;61835.03;4969955;28;20432;-78
2022/01/16 05:57:46;;;;;;;11.30;7.57;;;;;;;-1.65;100.00;61831.06;4966435;28;20225;-78
2022/01/16 06:00:15;;;;;;;12.30;7.30;;;;;;;-1.45;100.00;61854.00;4969473;29;20787;-79
2022/01/16 06:02:42;;;;;;;8.68;6.88;;;;;;;-1.47;100.00;61846.97;4969953;28;20506;-76
2022/01/16 06:05:13;;;;;;;12.10;7.40;;;;;;;-1.43;100.00;61860.53;4964071;28;20248;-78
2022/01/16 06:07:44;;;;;;;10.27;7.18;;;;;;;-1.39;100.00;61859.63;4960613;29;20251;-77
2022/01/16 06:10:12;;;;;;;10.20;7.13;;;;;;;-1.26;100.00;61873.44;4967404;28;20189;-78
2022/01/16 06:12:39;;;;;;;10.50;7.97;;;;;;;-1.23;100.00;61873.53;4949332;29;20478;-78
2022/01/16 06:15:07;;;;;;;8.68;6.72;;;;;;;-1.26;100.00;61878.44;4955299;28;20239;-78
2022/01/16 06:17:35;;;;;;;9.18;5.90;;;;;;;-1.25;100.00;61872.00;4967980;29;20201;-78
2022/01/16 06:20:04;;;;;;;9.95;5.85;;;;;;;-1.30;100.00;61871.88;4966985;28;20275;-78
2022/01/16 06:22:31;;;;;;;8.80;6.55;;;;;;;-1.30;100.00;61864.38;4966245;28;20196;-78
2022/01/16 06:24:57;;;;;;;13.40;6.60;;;;;;;-1.33;100.00;61865.78;4961119;28;20204;-79
2022/01/16 06:27:25;;;;;;;12.75;6.47;;;;;;;-1.31;100.00;61868.34;4966694;29;20232;-79
2022/01/16 06:29:53;;;;;;;9.27;6.75;;;;;;;-1.38;100.00;61858.69;4967288;29;20201;-80
2022/01/16 06:32:19;;;;;;;8.27;6.53;;;;;;;-1.48;100.00;61852.91;4949947;29;20593;-76
2022/01/16 06:34:47;;;;;;;11.77;8.20;;;;;;;-1.51;100.00;61842.38;4966313;29;20283;-79
2022/01/16 06:37:14;;;;;;;16.05;8.55;;;;;;;-1.44;100.00;61852.03;4968540;28;20220;-79
2022/01/16 06:39:41;;;;;;;9.77;6.72;;;;;;;-1.46;100.00;61850.50;4967986;28;20220;-78
2022/01/16 06:42:08;;;;;;;11.23;6.90;;;;;;;-1.42;100.00;61854.59;4966268;28;20217;-78
2022/01/16 06:44:35;;;;;;;8.45;5.93;;;;;;;-1.42;100.00;61856.56;4964998;29;20192;-79
2022/01/16 06:47:02;;;;;;;10.98;6.45;;;;;;;-1.32;100.00;61866.81;4967801;28;20230;-78
2022/01/16 06:49:29;;;;;;;7.55;6.07;;;;;;;-1.28;100.00;61870.91;4965215;29;20226;-78
2022/01/16 06:51:57;;;;;;;8.40;6.13;;;;;;;-1.25;99.96;61873.97;4963585;28;20243;-77
2022/01/16 06:54:24;;;;;;;9.73;7.03;;;;;;;-1.23;100.00;61881.00;4968914;29;20255;-78
2022/01/16 06:56:51;;;;;;;25.30;13.93;;;;;;;-1.24;99.54;61870.50;4966013;28;20234;-79
2022/01/16 06:59:18;;;;;;;57.80;27.65;;;;;;;-1.25;99.86;61871.47;4958603;28;20280;-78
2022/01/16 07:01:45;;;;;;;16.48;9.95;;;;;;;-1.21;100.00;61873.06;4957834;29;20447;-79
2022/01/16 07:04:12;;;;;;;13.77;8.27;;;;;;;-1.13;100.00;61883.75;4969277;29;20252;-79
2022/01/16 07:06:38;;;;;;;15.00;8.88;;;;;;;-1.02;99.94;61897.00;4974760;28;20236;-80
2022/01/16 07:09:07;;;;;;;17.50;10.55;;;;;;;-0.94;99.81;61907.69;4974063;29;20231;-79
2022/01/16 07:11:33;;;;;;;16.98;10.30;;;;;;;-0.82;99.52;61914.97;4974857;29;20236;-79
2022/01/16 07:14:00;;;;;;;23.85;12.75;;;;;;;-0.74;99.34;61925.69;4974962;29;20201;-79
2022/01/16 07:16:27;;;;;;;20.80;13.05;;;;;;;-0.67;99.10;61930.84;4972996;28;20236;-79
2022/01/16 07:18:54;;;;;;;20.92;11.23;;;;;;;-0.72;99.03;61932.72;4967945;29;20272;-78
2022/01/16 07:21:21;;;;;;;12.68;8.15;;;;;;;-0.69;99.31;61930.78;4953268;29;20225;-78
2022/01/16 07:23:49;;;;;;;8.23;6.88;;;;;;;-0.85;100.00;61912.44;4965507;29;20504;-80
2022/01/16 07:26:18;;;;;;;11.95;8.57;;;;;;;-0.82;100.00;61923.00;4959720;29;20223;-79
2022/01/16 07:28:45;;;;;;;12.15;7.43;;;;;;;-0.71;100.00;61929.25;4971883;29;20232;-79
2022/01/16 07:31:13;;;;;;;12.68;7.57;;;;;;;-0.83;100.00;61916.97;4974977;29;20221;-81
2022/01/16 07:33:40;;;;;;;24.85;11.98;;;;;;;-0.56;100.00;61942.13;4974829;28;20236;-79
2022/01/16 07:36:07;;;;;;;10.00;7.65;;;;;;;-0.52;100.00;61948.69;4973996;28;20276;-78
2022/01/16 07:38:35;;;;;;;14.07;8.77;;;;;;;-0.65;100.00;61932.38;4973012;28;20255;-80
2022/01/16 07:41:03;;;;;;;12.60;7.35;;;;;;;-0.54;100.00;61946.16;4974271;28;20242;-81
2022/01/16 07:43:36;;;;;;;13.13;7.95;;;;;;;-0.53;100.00;61950.19;4974308;29;20204;-80
2022/01/16 07:46:04;;;;;;;10.45;7.07;;;;;;;-0.48;100.00;61947.81;4982839;28;20243;-80
2022/01/16 07:48:31;;;;;;;8.52;6.10;;;;;;;-0.61;100.00;61937.00;4973402;29;20470;-78
2022/01/16 07:50:58;;;;;;;10.40;6.45;;;;;;;-0.79;100.00;61918.03;4969884;29;20533;-79
2022/01/16 07:53:26;;;;;;;11.90;6.85;;;;;;;-0.74;100.00;61931.19;4978391;29;20197;-80
2022/01/16 07:55:52;;;;;;;12.88;7.50;;;;;;;-0.66;100.00;61936.88;4980270;28;20235;-79
2022/01/16 07:58:19;;;;;;;17.80;10.38;;;;;;;-1.06;100.00;61890.94;4977365;29;20201;-79
2022/01/16 08:00:47;;;;;;;8.50;6.75;;;;;;;-0.85;100.00;61912.44;4971317;29;20501;-79
2022/01/16 08:03:15;;;;;;;13.90;6.85;;;;;;;-0.66;100.00;61933.88;4971748;29;20221;-79
2022/01/16 08:05:41;;;;;;;11.07;7.13;;;;;;;-0.64;100.00;61936.41;4974683;28;20284;-80
2022/01/16 08:08:08;;;;;;;11.60;6.72;;;;;;;-0.61;100.00;61938.97;4977959;28;20535;-81
2022/01/16 08:10:36;;;;;;;14.60;6.95;;;;;;;-0.47;100.00;61950.81;4976906;29;20220;-80
2022/01/16 08:13:03;;;;;;;12.23;8.40;;;;;;;-0.33;100.00;61970.66;4976131;29;20196;-80
2022/01/16 08:15:29;;;;;;;9.65;6.05;;;;;;;-0.37;100.00;61961.06;4975478;29;20224;-80
2022/01/16 08:17:58;;;;;;;9.57;6.38;;;;;;;-0.51;100.00;61946.72;4974493;29;20549;-81
2022/01/16 08:20:24;;;;;;;10.02;6.15;;;;;;;-0.64;100.00;61933.91;4973467;28;20237;-81
2022/01/16 08:22:52;;;;;;;15.63;7.55;;;;;;;-0.38;100.00;61962.56;4973013;29;20204;-78
2022/01/16 08:25:19;;;;;;;8.43;6.35;;;;;;;-0.29;100.00;61972.28;4966119;29;20224;-78
2022/01/16 08:27:46;;;;;;;9.65;7.32;;;;;;;-0.46;100.00;61952.34;4963152;28;20211;-78
2022/01/16 08:30:13;;;;;;;8.60;6.60;;;;;;;-0.27;100.00;61974.31;4968118;28;20200;-78
2022/01/16 08:32:43;;;;;;;9.80;6.25;;;;;;;-0.51;99.84;61949.22;4968090;29;20204;-79
2022/01/16 08:35:13;;;;;;;9.30;6.97;;;;;;;-0.65;100.00;61929.88;4970505;29;20564;-79
2022/01/16 08:37:40;;;;;;;12.43;5.95;;;;;;;-0.63;100.00;61942.44;4971830;29;20200;-79
2022/01/16 08:40:08;;;;;;;9.88;7.90;;;;;;;-0.40;100.00;61960.50;4974441;28;20236;-78
2022/01/16 08:42:40;;;;;;;9.63;6.55;;;;;;;-0.11;98.92;61985.72;4969544;28;20200;-80
2022/01/16 08:45:07;;;;;;;9.15;6.55;;;;;;;0.06;96.81;62012.09;4963685;28;20228;-79
2022/01/16 08:47:35;;;;;;;8.25;6.50;;;;;;;-0.04;95.55;61994.88;4968151;28;20189;-80
2022/01/16 08:50:04;;;;;;;13.88;8.07;;;;;;;0.29;96.03;62028.19;4957532;29;20216;-78
2022/01/16 08:52:32;;;;;;;7.25;5.88;;;;;;;0.51;93.86;62053.75;4967064;29;20196;-78
2022/01/16 08:55:01;;;;;;;8.07;6.28;;;;;;;0.60;91.82;62060.47;4972850;28;20238;-79
2022/01/16 08:57:28;;;;;;;42.10;21.98;;;;;;;0.74;91.09;62076.81;4975618;29;20240;-79
2022/01/16 08:59:55;;;;;;;9.18;7.68;;;;;;;0.83;90.60;62088.53;4975608;29;20239;-80
2022/01/16 09:02:22;;;;;;;11.82;7.10;;;;;;;0.96;89.97;62101.91;4971150;28;20212;-78
2022/01/16 09:04:49;;;;;;;15.00;7.15;;;;;;;0.88;89.54;62094.19;4968122;29;20205;-79
2022/01/16 09:07:16;;;;;;;12.65;7.57;;;;;;;0.76;91.66;62079.38;4974038;28;20231;-79
2022/01/16 09:09:44;;;;;;;11.88;7.05;;;;;;;0.91;92.39;62089.25;4973147;29;20243;-78
2022/01/16 09:12:12;;;;;;;21.52;12.93;;;;;;;0.88;91.99;62086.19;4976219;28;20276;-78
2022/01/16 09:14:38;;;;;;;16.95;8.27;;;;;;;1.13;91.58;62117.34;4968713;29;20209;-79
2022/01/16 09:17:05;;;;;;;10.93;6.80;;;;;;;1.22;87.95;62126.06;4970449;29;20440;-78
2022/01/16 09:19:33;;;;;;;16.98;11.27;;;;;;;0.98;91.71;62098.94;4973262;28;20236;-79
2022/01/16 09:21:59;;;;;;;22.30;13.63;;;;;;;1.08;92.25;62114.72;4960982;28;20236;-78
2022/01/16 09:24:26;;;;;;;19.98;12.68;;;;;;;1.13;91.56;62112.31;4972932;29;20251;-79
2022/01/16 09:26:56;;;;;;;19.25;10.93;;;;;;;1.02;90.52;62106.06;4973708;28;20232;-79
2022/01/16 09:29:23;;;;;;;22.17;12.27;;;;;;;1.10;90.33;62111.75;4972786;28;20196;-79
2022/01/16 09:31:50;;;;;;;21.73;13.40;;;;;;;1.16;91.44;62117.38;4964655;28;20237;-79
2022/01/16 09:34:17;;;;;;;23.02;14.23;;;;;;;1.34;91.48;62138.38;4953327;29;20209;-79
2022/01/16 09:36:44;;;;;;;19.13;11.70;;;;;;;1.01;92.25;62102.00;4955887;29;20229;-79
2022/01/16 09:39:12;;;;;;;18.95;11.98;;;;;;;1.20;91.23;62121.50;4955488;29;20256;-80
2022/01/16 09:41:41;;;;;;;18.52;12.40;;;;;;;0.99;91.88;62105.47;4970043;29;20240;-81
2022/01/16 09:44:09;;;;;;;20.55;12.48;;;;;;;0.85;92.41;62088.63;4977075;29;20193;-81
2022/01/16 09:46:37;;;;;;;19.83;12.15;;;;;;;1.03;93.78;62107.09;4974836;28;20224;-81
2022/01/16 09:49:04;;;;;;;27.77;13.52;;;;;;;1.09;92.58;62113.22;4972644;29;20240;-81
2022/01/16 09:51:32;;;;;;;21.40;11.65;;;;;;;1.31;92.15;62137.28;4953305;29;20230;-82
2022/01/16 09:53:59;;;;;;;17.70;11.65;;;;;;;1.28;91.42;62132.22;4965973;29;20203;-82
2022/01/16 09:56:27;;;;;;;19.02;11.77;;;;;;;1.26;90.82;62125.13;4969675;28;20244;-82
2022/01/16 09:58:54;;;;;;;20.08;12.98;;;;;;;1.07;92.00;62113.69;4973546;29;20212;-82
2022/01/16 10:01:23;;;;;;;23.73;14.15;;;;;;;1.05;91.92;62106.13;4973976;28;20236;-82
2022/01/16 10:03:51;;;;;;;27.85;13.40;;;;;;;0.92;92.65;62093.28;4973266;29;20244;-81
2022/01/16 10:06:21;;;;;;;19.52;13.77;;;;;;;1.12;92.71;62113.28;4972908;28;20289;-82
2022/01/16 10:08:49;;;;;;;22.80;13.18;;;;;;;1.47;91.52;62154.22;4973875;29;20201;-82
2022/01/16 10:11:21;;;;;;;24.80;13.95;;;;;;;1.74;89.74;62176.91;4970586;29;20260;-81
2022/01/16 10:13:57;;;;;;;20.77;12.15;;;;;;;1.82;87.47;62189.63;4971328;29;20211;-82
2022/01/16 10:16:31;;;;;;;25.80;12.95;;;;;;;1.50;88.51;62154.28;4970629;28;20212;-81
2022/01/16 10:18:58;;;;;;;21.92;13.27;;;;;;;1.38;88.08;62142.47;4971273;28;20189;-82
2022/01/16 10:21:37;;;;;;;20.42;13.60;;;;;;;1.50;88.03;62152.28;4971032;28;20239;-83
2022/01/16 10:24:25;;;;;;;20.25;12.60;;;;;;;1.45;87.93;62147.13;4973175;29;20206;-82
2022/01/16 10:27:18;;;;;;;24.40;13.98;;;;;;;1.78;87.53;62181.00;4974004;28;20232;-82
2022/01/16 10:29:48;;;;;;;18.25;12.27;;;;;;;1.95;85.64;62200.97;4954482;29;20229;-82
2022/01/16 10:32:19;;;;;;;17.23;11.77;;;;;;;1.95;84.35;62200.97;4972973;29;20239;-80
2022/01/16 10:34:48;;;;;;;23.83;11.70;;;;;;;1.95;84.04;62197.97;4973065;29;20197;-82
2022/01/16 10:37:24;;;;;;;22.30;13.30;;;;;;;1.47;85.38;62148.69;4971585;29;20221;-82
2022/01/16 10:39:57;;;;;;;17.50;11.98;;;;;;;1.69;85.78;62171.78;4971331;29;20206;-81
2022/01/16 10:42:25;;;;;;;20.02;12.40;;;;;;;2.16;85.71;62219.50;4969779;29;20236;-83
2022/01/16 10:45:02;;;;;;;21.65;12.55;;;;;;;2.16;82.99;62219.50;4972082;28;20216;-81
2022/01/16 10:47:36;;;;;;;19.42;12.80;;;;;;;2.05;83.79;62210.75;4972099;29;20200;-82
2022/01/16 10:50:15;;;;;;;22.48;11.63;;;;;;;1.94;83.27;62199.44;4974672;28;20213;-82
2022/01/16 10:52:52;;;;;;;17.25;11.73;;;;;;;2.08;82.92;62213.81;4971218;29;20228;-82
2022/01/16 10:55:21;;;;;;;18.70;11.65;;;;;;;2.18;81.65;62222.09;4971876;28;20283;-81
2022/01/16 10:57:48;;;;;;;23.10;13.15;;;;;;;2.02;81.90;62205.16;4970993;28;20201;-79
2022/01/16 11:00:18;;;;;;;20.95;13.23;;;;;;;2.17;81.92;62223.56;4972394;29;20240;-81
2022/01/16 11:02:49;;;;;;;18.58;11.75;;;;;;;2.43;80.23;62247.25;4974864;28;20215;-83
2022/01/16 11:05:17;;;;;;;20.77;13.38;;;;;;;2.42;78.91;62248.72;4962261;28;20205;-81
2022/01/16 11:07:48;;;;;;;18.13;11.88;;;;;;;2.59;79.82;62265.69;4970288;29;20260;-83
2022/01/16 11:10:29;;;;;;;23.52;13.38;;;;;;;2.62;77.95;62266.25;4975710;28;20189;-81
2022/01/16 11:12:58;;;;;;;20.30;11.77;;;;;;;2.47;78.16;62253.38;4970535;29;20229;-81
2022/01/16 11:15:25;;;;;;;20.77;11.73;;;;;;;2.56;78.28;62263.13;4957967;29;20276;-83
2022/01/16 11:17:57;;;;;;;21.30;13.18;;;;;;;2.72;77.85;62276.53;4966095;29;20458;-81
2022/01/16 11:20:32;;;;;;;25.80;13.23;;;;;;;2.84;78.07;62291.38;4976649;28;20228;-81
2022/01/16 11:23:02;;;;;;;19.27;12.30;;;;;;;3.08;77.03;62311.00;4973895;29;20521;-81
2022/01/16 11:25:36;;;;;;;18.13;11.70;;;;;;;2.97;76.20;62307.25;4971728;28;20251;-81
2022/01/16 11:28:06;;;;;;;26.70;13.07;;;;;;;2.59;77.16;62268.19;4970837;29;20213;-80
2022/01/16 11:30:35;;;;;;;18.10;12.18;;;;;;;2.73;75.97;62280.06;4970680;29;20228;-83
2022/01/16 11:33:03;;;;;;;22.13;12.57;;;;;;;2.60;76.17;62262.19;4969907;29;20219;-79
2022/01/16 11:35:32;;;;;;;23.08;13.60;;;;;;;2.89;76.80;62297.03;4971185;28;20244;-79
2022/01/16 11:38:00;;;;;;;25.70;14.23;;;;;;;3.07;74.22;62315.00;4972003;28;20205;-80
2022/01/16 11:40:37;;;;;;;24.95;13.80;;;;;;;3.32;73.23;62348.25;4971596;28;20232;-80
2022/01/16 11:43:33;;;;;;;23.40;11.98;;;;;;;3.27;71.72;62333.56;4970558;29;20279;-80
2022/01/16 11:46:12;;;;;;;20.63;12.75;;;;;;;3.17;71.90;62320.25;4969644;28;20216;-79
2022/01/16 11:48:42;;;;;;;19.38;11.63;;;;;;;2.91;72.91;62298.56;4960110;29;20225;-78
2022/01/16 11:52:03;;;;;;;19.67;11.40;;;;;;;3.13;72.71;62324.19;4955620;29;20221;-80
2022/01/16 11:54:38;;;;;;;20.85;12.50;;;;;;;3.25;71.77;62331.00;4920505;29;20215;-79
2022/01/16 11:57:17;;;;;;;28.65;13.20;;;;;;;3.33;71.34;62337.22;4916014;29;20266;-81
2022/01/16 11:59:45;;;;;;;22.70;13.73;;;;;;;3.49;71.31;62358.19;4954289;28;20207;-80
2022/01/16 12:02:24;;;;;;;19.17;12.80;;;;;;;3.71;70.01;62377.78;4970193;28;20541;-80
2022/01/16 12:04:56;;;;;;;21.70;11.60;;;;;;;3.79;68.98;62388.53;4971036;29;20267;-79
2022/01/16 12:07:52;;;;;;;23.23;13.38;;;;;;;3.81;68.70;62393.63;4972206;29;20197;-80